Time;durP1;ratioP1;P1;durP2;ratioP2;P2;SDS_P1;SDS_P2;PMS_P1;PMS_P2;Temp;Humidity;BMP_temperature;BMP_pressure;BME280_temperature;BME280_humidity;BME280_pressure;Samples;Min_cycle;Max_cycle;Signal;HPM_P1;HPM_P2
2021/12/14 00:01:48;;;;;;;268.60;163.60;;;;;;;1.43;82.94;101583.64;108973;1277;21983;-77
2021/12/14 00:04:32;;;;;;;278.40;162.40;;;;;;;1.45;82.98;101586.14;108838;1276;22435;-76
2021/12/14 00:07:09;;;;;;;268.90;159.60;;;;;;;1.46;83.03;101589.02;108882;1277;22312;-76
2021/12/14 00:09:46;;;;;;;376.40;260.90;;;;;;;1.50;83.03;101592.48;108869;1276;21975;-76
2021/12/14 00:12:42;;;;;;;266.50;166.70;;;;;;;1.48;82.75;101586.70;108932;1277;22009;-77
2021/12/14 00:15:16;;;;;;;267.60;157.00;;;;;;;1.44;82.90;101591.71;108518;1282;21986;-77
2021/12/14 00:17:52;;;;;;;;;;;;;;;1.42;82.97;101592.70;108518;1282;22231;-77
2021/12/14 00:20:36;;;;;;;267.20;157.60;;;;;;;1.38;83.19;101591.02;108562;1282;23773;-76
2021/12/14 00:26:03;;;;;;;266.00;158.20;;;;;;;1.51;83.34;101586.31;108535;1282;23053;-77
2021/12/14 00:28:37;;;;;;;262.30;156.40;;;;;;;1.55;83.31;101580.55;108588;1281;22028;-77
2021/12/14 00:31:16;;;;;;;254.10;151.60;;;;;;;1.55;83.08;101579.02;108500;1282;21986;-76
2021/12/14 00:33:52;;;;;;;250.80;146.60;;;;;;;1.53;82.99;101582.41;108686;1278;21983;-75
2021/12/14 00:36:25;;;;;;;245.40;147.10;;;;;;;1.51;83.08;101581.29;108514;1280;23714;-76
2021/12/14 00:38:58;;;;;;;231.00;144.50;;;;;;;1.52;83.18;101580.03;108653;1281;22001;-76
2021/12/14 00:41:33;;;;;;;228.10;141.70;;;;;;;1.54;83.26;101582.02;108246;1287;22710;-75
2021/12/14 00:44:03;;;;;;;225.90;134.60;;;;;;;1.58;83.25;101590.99;108051;1288;22002;-76
2021/12/14 00:46:39;;;;;;;220.60;141.40;;;;;;;1.65;83.36;101590.48;108234;1284;23598;-75
2021/12/14 00:49:15;;;;;;;236.40;143.00;;;;;;;1.71;83.32;101593.28;108191;1288;22050;-75
2021/12/14 00:51:46;;;;;;;226.20;139.10;;;;;;;1.76;83.13;101596.98;108101;1288;22009;-75
2021/12/14 00:54:17;;;;;;;218.00;139.00;;;;;;;1.80;83.11;101595.74;108140;1282;23073;-77
2021/12/14 00:56:53;;;;;;;220.20;138.40;;;;;;;1.82;83.04;101592.17;108454;1283;22023;-76
2021/12/14 00:59:23;;;;;;;216.30;139.60;;;;;;;1.80;82.96;101591.25;108588;1276;22002;-76
2021/12/14 01:02:20;;;;;;;221.50;140.10;;;;;;;1.75;82.89;101595.49;108891;1277;22520;-75
2021/12/14 01:04:59;;;;;;;223.90;139.30;;;;;;;1.72;82.87;101594.11;108727;1281;22001;-76
2021/12/14 01:07:30;;;;;;;223.10;144.70;;;;;;;1.70;82.86;101592.32;108692;1281;23226;-76
2021/12/14 01:10:19;;;;;;;224.80;145.10;;;;;;;1.64;82.75;101596.05;108616;1281;22083;-76
2021/12/14 01:12:55;;;;;;;225.00;151.20;;;;;;;1.59;82.78;101597.02;108663;1281;22001;-76
2021/12/14 01:16:01;;;;;;;228.70;149.40;;;;;;;1.57;82.85;101600.60;108631;1280;23605;-74
2021/12/14 01:24:35;;;;;;;228.70;149.50;;;;;;;1.59;82.86;101598.40;108210;1288;22015;-75
2021/12/14 01:27:13;;;;;;;226.80;148.00;;;;;;;1.57;82.98;101597.11;108196;1287;23587;-75
2021/12/14 01:29:49;;;;;;;219.70;142.00;;;;;;;1.59;83.11;101601.36;108081;1288;23605;-75
2021/12/14 01:32:21;;;;;;;228.00;145.20;;;;;;;1.64;83.22;101597.48;108291;1288;23059;-75
2021/12/14 01:34:52;;;;;;;220.80;143.40;;;;;;;1.68;83.04;101596.95;108020;1291;22024;-75
2021/12/14 01:37:27;;;;;;;217.80;142.10;;;;;;;1.70;83.10;101599.95;108031;1291;22002;-76
2021/12/14 01:42:34;;;;;;;238.30;153.20;;;;;;;1.69;82.93;101606.27;107870;1289;22063;-76
2021/12/14 01:45:20;;;;;;;232.00;146.70;;;;;;;1.68;82.99;101606.83;108022;1289;23002;-76
2021/12/14 01:47:58;;;;;;;228.80;147.60;;;;;;;1.66;83.01;101604.48;108170;1288;23697;-75
2021/12/14 01:50:58;;;;;;;218.10;141.20;;;;;;;1.60;82.81;101596.96;108208;1287;21978;-76
2021/12/14 01:53:55;;;;;;;203.00;130.60;;;;;;;1.54;82.86;101594.88;108115;1287;135056;-75
2021/12/14 01:56:29;;;;;;;188.50;126.60;;;;;;;1.51;82.96;101594.83;108063;1288;22011;-76
2021/12/14 01:59:14;;;;;;;192.50;129.10;;;;;;;1.49;83.02;101592.02;108143;1285;22993;-75
2021/12/14 02:02:09;;;;;;;190.00;128.60;;;;;;;1.49;83.07;101591.83;108653;1277;21982;-76
2021/12/14 02:04:45;;;;;;;193.80;124.60;;;;;;;1.48;83.14;101590.30;108961;1277;23333;-76
2021/12/14 02:07:17;;;;;;;193.50;128.60;;;;;;;1.49;83.16;101592.20;109040;1277;21966;-75
2021/12/14 02:09:59;;;;;;;193.20;125.60;;;;;;;1.49;83.16;101586.12;108690;1278;21996;-75
2021/12/14 02:12:36;;;;;;;201.80;128.50;;;;;;;1.47;83.05;101577.90;108776;1278;22940;-75
2021/12/14 02:15:34;;;;;;;190.20;124.50;;;;;;;1.42;83.01;101575.67;108898;1277;23029;-76
2021/12/14 02:18:14;;;;;;;198.70;124.80;;;;;;;1.39;83.11;101574.77;108790;1278;24114;-76
2021/12/14 02:20:48;;;;;;;180.70;121.10;;;;;;;1.39;83.20;101582.96;108574;1282;23708;-76
2021/12/14 02:23:20;;;;;;;183.60;119.30;;;;;;;1.42;83.31;101576.38;108363;1283;23106;-76
2021/12/14 02:25:54;;;;;;;193.10;122.70;;;;;;;1.46;83.45;101573.05;108099;1287;21995;-75
2021/12/14 02:28:23;;;;;;;190.60;121.10;;;;;;;1.51;83.48;101569.48;108067;1287;23752;-76
2021/12/14 02:30:58;;;;;;;177.60;117.80;;;;;;;1.58;83.55;101567.56;108065;1286;22001;-75
2021/12/14 02:33:34;;;;;;;178.00;118.40;;;;;;;1.62;83.41;101561.98;108156;1286;23054;-75
2021/12/14 02:36:11;;;;;;;162.10;109.60;;;;;;;1.60;83.20;101558.79;108239;1287;23844;-75
2021/12/14 02:38:45;;;;;;;164.60;111.30;;;;;;;1.54;83.13;101560.47;108403;1281;22472;-76
2021/12/14 02:41:16;;;;;;;168.30;108.80;;;;;;;1.51;83.04;101559.80;108460;1287;23655;-75
2021/12/14 02:43:55;;;;;;;165.00;108.20;;;;;;;1.47;83.05;101556.51;108334;1285;21987;-76
2021/12/14 02:46:37;;;;;;;167.50;110.70;;;;;;;1.47;83.26;101558.77;108080;1288;23795;-75
2021/12/14 02:49:12;;;;;;;165.10;111.20;;;;;;;1.50;83.35;101563.64;108334;1283;24600;-75
2021/12/14 02:51:51;;;;;;;156.00;107.30;;;;;;;1.56;83.38;101554.86;108574;1281;23678;-75
2021/12/14 02:54:42;;;;;;;154.90;106.40;;;;;;;1.59;83.36;101547.70;108482;1280;22000;-75
2021/12/14 02:57:19;;;;;;;155.10;105.30;;;;;;;1.62;83.31;101546.52;108546;1280;22007;-76
2021/12/14 02:59:54;;;;;;;165.70;109.10;;;;;;;1.62;83.30;101539.25;108818;1278;21976;-77
2021/12/14 03:02:33;;;;;;;155.90;106.70;;;;;;;1.61;83.35;101545.87;108718;1281;22020;-76
2021/12/14 03:05:21;;;;;;;148.40;101.90;;;;;;;1.61;83.36;101548.66;108608;1281;23556;-76
2021/12/14 03:08:22;;;;;;;151.80;104.40;;;;;;;1.65;83.49;101551.75;108370;1286;23039;-76
2021/12/14 03:11:11;;;;;;;148.50;100.50;;;;;;;1.70;83.42;101550.10;108242;1287;21970;-75
2021/12/14 03:13:51;;;;;;;142.40;97.50;;;;;;;1.73;83.38;101546.30;108383;1286;21987;-75
2021/12/14 03:16:28;;;;;;;136.30;94.50;;;;;;;1.77;83.39;101544.48;108213;1287;23791;-76
2021/12/14 03:19:06;;;;;;;144.50;95.70;;;;;;;1.80;83.26;101549.40;108402;1286;23097;-75
2021/12/14 03:21:45;;;;;;;139.80;96.50;;;;;;;1.80;83.27;101555.11;108534;1281;21983;-75
2021/12/14 03:24:21;;;;;;;139.80;99.10;;;;;;;1.85;83.33;101562.16;108498;1282;22120;-75
2021/12/14 03:26:54;;;;;;;151.30;101.50;;;;;;;1.90;83.26;101561.69;108932;1278;22503;-76
2021/12/14 03:29:31;;;;;;;130.40;93.80;;;;;;;1.96;83.20;101559.99;108555;1281;22107;-76
2021/12/14 03:32:01;;;;;;;145.50;97.70;;;;;;;2.01;83.19;101561.80;108642;1281;21984;-76
2021/12/14 03:34:42;;;;;;;154.40;104.90;;;;;;;2.05;83.12;101562.27;108625;1281;21992;-77
2021/12/14 03:37:24;;;;;;;134.50;94.00;;;;;;;2.09;82.99;101560.68;108444;1280;23043;-76
2021/12/14 03:40:02;;;;;;;141.40;105.10;;;;;;;2.10;82.94;101554.02;108505;1281;22966;-76
2021/12/14 03:42:40;;;;;;;142.70;103.90;;;;;;;2.10;82.72;101548.12;108226;1287;22113;-76
2021/12/14 03:45:20;;;;;;;146.70;104.20;;;;;;;2.10;82.81;101543.59;108355;1286;22008;-76
2021/12/14 03:47:59;;;;;;;139.70;103.70;;;;;;;2.15;82.96;101545.77;108379;1281;21999;-76
2021/12/14 03:50:42;;;;;;;144.10;105.10;;;;;;;2.19;83.01;101547.96;108662;1281;21992;-76
2021/12/14 03:53:14;;;;;;;149.50;108.70;;;;;;;2.21;82.79;101546.30;108611;1282;22010;-76
2021/12/14 03:55:51;;;;;;;146.70;106.20;;;;;;;2.15;82.65;101547.15;108520;1280;22292;-75
2021/12/14 03:58:35;;;;;;;155.90;111.00;;;;;;;2.08;82.57;101547.71;108740;1280;23580;-76
2021/12/14 04:01:22;;;;;;;151.60;100.30;;;;;;;2.02;82.66;101546.13;108897;1276;22034;-76
2021/12/14 04:04:09;;;;;;;158.60;108.20;;;;;;;1.99;82.73;101542.15;108956;1277;23749;-75
2021/12/14 04:06:41;;;;;;;154.40;98.10;;;;;;;1.93;82.75;101541.42;108751;1278;23686;-75
2021/12/14 04:09:14;;;;;;;158.70;104.50;;;;;;;1.89;82.70;101541.09;109004;1275;21988;-75
2021/12/14 04:11:45;;;;;;;152.20;101.30;;;;;;;1.85;82.82;101539.54;108805;1277;23014;-75
2021/12/14 04:14:16;;;;;;;154.20;100.40;;;;;;;1.81;82.83;101536.79;108913;1278;24386;-75
2021/12/14 04:16:51;;;;;;;165.90;103.20;;;;;;;1.79;82.92;101535.38;108955;1276;22928;-76
2021/12/14 04:19:31;;;;;;;152.00;99.30;;;;;;;1.81;83.03;101535.44;108457;1281;22009;-76
2021/12/14 04:22:16;;;;;;;163.50;103.70;;;;;;;1.81;83.03;101534.75;108575;1281;23631;-76
2021/12/14 04:25:04;;;;;;;170.40;114.90;;;;;;;1.78;82.97;101535.26;108517;1281;22905;-76
2021/12/14 04:27:40;;;;;;;172.80;117.60;;;;;;;1.73;82.96;101537.78;108563;1281;24933;-76
2021/12/14 04:30:18;;;;;;;167.20;114.20;;;;;;;1.69;83.04;101538.89;108467;1285;22123;-76
2021/12/14 04:32:57;;;;;;;164.60;113.30;;;;;;;1.68;83.10;101532.86;108339;1287;23606;-76
2021/12/14 04:35:27;;;;;;;170.60;118.60;;;;;;;1.72;83.33;101534.01;108249;1285;22115;-75
2021/12/14 04:38:12;;;;;;;174.70;121.60;;;;;;;1.77;83.36;101525.93;108454;1281;21986;-75
2021/12/14 04:52:27;;;;;;;144.50;99.60;;;;;;;1.92;83.18;101538.70;108000;1291;22027;-76
2021/12/14 04:55:23;;;;;;;155.70;104.50;;;;;;;1.91;83.11;101534.21;108058;1289;22769;-77
2021/12/14 04:58:05;;;;;;;156.90;109.80;;;;;;;1.91;83.14;101529.69;108097;1287;22030;-76
2021/12/14 05:00:46;;;;;;;164.60;109.20;;;;;;;1.94;83.28;101526.77;108411;1285;23584;-76
2021/12/14 05:03:42;;;;;;;159.70;112.90;;;;;;;1.97;83.20;101517.23;108375;1285;21977;-76
2021/12/14 05:11:45;;;;;;;152.00;100.50;;;;;;;1.89;83.06;101508.77;108357;1283;22397;-76
2021/12/14 05:14:15;;;;;;;138.00;98.20;;;;;;;1.91;83.27;101506.59;108396;1284;22010;-75
2021/12/14 05:16:52;;;;;;;155.90;103.70;;;;;;;1.95;83.27;101504.64;108442;1283;24301;-75
2021/12/14 05:19:38;;;;;;;143.10;99.30;;;;;;;1.97;83.17;101503.48;108464;1283;23555;-75
2021/12/14 05:22:34;;;;;;;150.10;99.70;;;;;;;2.00;83.18;101503.84;108451;1284;23772;-75
2021/12/14 05:25:28;;;;;;;141.50;100.20;;;;;;;2.02;83.19;101508.73;108485;1284;21989;-75
2021/12/14 05:28:09;;;;;;;147.80;97.80;;;;;;;2.04;83.19;101507.05;108494;1284;22039;-75
2021/12/14 05:30:43;;;;;;;144.70;101.20;;;;;;;2.02;83.07;101506.30;108672;1278;22035;-75
2021/12/14 05:33:35;;;;;;;155.40;102.80;;;;;;;1.99;82.92;101505.25;108885;1278;23488;-74
2021/12/14 05:36:22;;;;;;;202.80;132.20;;;;;;;1.93;82.99;101507.33;108856;1278;23742;-76
2021/12/14 05:39:16;;;;;;;;;;;;;;;;;;;;;
2021/12/14 05:44:55;;;;;;;151.20;107.70;;;;;;;1.88;83.13;101516.14;108636;1278;22452;-75
2021/12/14 05:47:28;;;;;;;158.50;105.80;;;;;;;1.90;83.25;101513.42;108492;1282;23660;-76
2021/12/14 05:50:08;;;;;;;170.70;107.60;;;;;;;1.92;83.25;101506.02;108470;1281;22016;-76
2021/12/14 05:52:40;;;;;;;160.40;101.70;;;;;;;1.94;83.34;101510.40;108483;1281;22827;-76
2021/12/14 05:55:28;;;;;;;144.60;96.90;;;;;;;1.95;83.19;101507.58;108512;1281;22053;-76
2021/12/14 05:58:06;;;;;;;130.60;87.80;;;;;;;1.93;83.14;101504.39;108497;1281;23615;-76
2021/12/14 06:00:37;;;;;;;114.40;82.80;;;;;;;1.92;83.20;101501.34;108509;1281;22010;-76
2021/12/14 06:03:16;;;;;;;113.60;82.10;;;;;;;1.91;83.16;101503.84;108132;1288;21989;-76
2021/12/14 06:05:51;;;;;;;114.20;79.40;;;;;;;1.89;83.21;101502.73;107849;1291;21997;-76
2021/12/14 06:08:33;;;;;;;114.00;76.80;;;;;;;1.86;83.18;101502.00;108163;1287;22100;-75
2021/12/14 06:11:25;;;;;;;102.30;74.50;;;;;;;1.81;83.12;101499.28;108024;1289;25151;-76
2021/12/14 06:13:56;;;;;;;106.60;76.80;;;;;;;1.76;83.17;101495.05;108078;1289;22029;-76
2021/12/14 06:16:36;;;;;;;105.10;73.10;;;;;;;1.73;83.29;101493.50;108061;1289;23802;-78
2021/12/14 06:19:29;;;;;;;116.60;79.40;;;;;;;1.73;83.45;101494.86;107884;1289;22025;-76
2021/12/14 06:22:11;;;;;;;125.80;82.50;;;;;;;1.74;83.43;101492.05;108308;1284;22102;-76
2021/12/14 06:24:49;;;;;;;116.40;77.30;;;;;;;1.76;83.56;101490.55;108500;1280;23052;-75
2021/12/14 06:27:22;;;;;;;120.80;79.90;;;;;;;1.79;83.53;101491.91;108858;1276;23596;-77
2021/12/14 06:29:58;;;;;;;114.20;78.60;;;;;;;1.81;83.59;101493.23;108766;1278;22065;-75
2021/12/14 06:32:31;;;;;;;117.60;74.00;;;;;;;1.84;83.61;101492.53;108437;1283;22162;-75
2021/12/14 06:35:18;;;;;;;120.70;75.90;;;;;;;1.85;83.51;101488.52;108456;1284;23692;-75
2021/12/14 06:40:54;;;;;;;97.00;67.30;;;;;;;1.79;83.60;101489.33;108441;1282;23212;-77
2021/12/14 06:43:32;;;;;;;96.30;64.90;;;;;;;1.82;83.90;101486.39;108349;1284;22795;-77
2021/12/14 06:46:19;;;;;;;158.10;99.60;;;;;;;1.88;83.99;101490.73;108271;1288;22047;-75
2021/12/14 06:49:01;;;;;;;179.50;125.20;;;;;;;1.90;83.87;101490.47;108116;1287;24363;-76
2021/12/14 06:51:41;;;;;;;217.40;165.10;;;;;;;1.92;83.88;101482.93;108364;1283;21995;-77
2021/12/14 06:54:36;;;;;;;205.40;128.30;;;;;;;1.89;83.72;101480.94;108523;1282;23282;-75
2021/12/14 06:57:08;;;;;;;142.50;87.70;;;;;;;1.88;83.76;101483.97;108427;1283;22743;-76
2021/12/14 06:59:43;;;;;;;109.80;72.60;;;;;;;1.92;83.86;101488.15;108421;1282;21988;-75
2021/12/14 07:02:14;;;;;;;124.70;77.30;;;;;;;1.93;83.88;101490.89;108527;1281;23797;-76
2021/12/14 07:05:01;;;;;;;117.00;75.10;;;;;;;1.93;83.79;101491.90;108735;1278;22005;-76
2021/12/14 07:07:37;;;;;;;136.20;84.30;;;;;;;1.96;83.92;101488.76;108872;1278;23043;-75
2021/12/14 07:10:15;;;;;;;128.30;79.70;;;;;;;2.00;83.86;101492.91;108636;1280;21976;-76
2021/12/14 07:12:51;;;;;;;171.10;92.60;;;;;;;2.02;83.85;101492.76;108594;1281;22295;-75
2021/12/14 07:15:36;;;;;;;140.70;84.90;;;;;;;2.04;83.84;101490.20;108641;1281;22048;-76
2021/12/14 07:18:12;;;;;;;120.10;81.50;;;;;;;2.08;83.90;101492.98;108166;1288;21999;-76
2021/12/14 07:20:51;;;;;;;214.10;157.70;;;;;;;2.11;83.89;101492.30;108019;1288;23850;-77
2021/12/14 07:23:21;;;;;;;156.60;118.50;;;;;;;2.13;83.90;101490.42;107922;1288;22034;-75
2021/12/14 07:26:00;;;;;;;119.90;82.80;;;;;;;2.16;83.86;101487.66;108019;1288;22054;-75
2021/12/14 07:28:45;;;;;;;108.90;73.50;;;;;;;2.17;83.84;101490.02;108156;1282;21970;-76
2021/12/14 07:31:23;;;;;;;114.10;78.60;;;;;;;2.20;83.86;101487.27;108488;1282;24297;-76
2021/12/14 07:33:59;;;;;;;128.50;86.30;;;;;;;2.20;83.78;101482.02;108415;1278;22482;-76
2021/12/14 07:36:39;;;;;;;111.70;78.10;;;;;;;2.22;83.82;101479.52;108626;1277;23068;-76
2021/12/14 07:39:17;;;;;;;89.80;68.30;;;;;;;2.20;83.67;101477.86;108724;1277;23645;-76
2021/12/14 07:42:06;;;;;;;75.10;60.80;;;;;;;2.18;83.75;101475.34;108627;1277;22182;-76
2021/12/14 07:45:10;;;;;;;76.00;55.70;;;;;;;2.17;83.67;101472.83;108860;1277;21984;-76
2021/12/14 07:48:08;;;;;;;68.80;55.70;;;;;;;2.16;83.76;101472.16;108443;1281;22011;-75
2021/12/14 07:51:15;;;;;;;86.80;67.80;;;;;;;2.13;83.76;101480.52;108426;1282;23613;-76
2021/12/14 07:54:15;;;;;;;75.60;60.80;;;;;;;2.15;83.92;101488.44;108473;1282;23037;-76
2021/12/14 07:56:59;;;;;;;140.80;113.60;;;;;;;2.18;84.02;101489.77;108422;1282;21998;-76
2021/12/14 07:59:36;;;;;;;95.10;77.30;;;;;;;2.22;83.96;101494.09;108431;1282;22043;-76
2021/12/14 08:02:19;;;;;;;86.40;69.50;;;;;;;2.24;83.94;101491.91;108390;1283;23691;-76
2021/12/14 08:05:04;;;;;;;82.60;69.40;;;;;;;2.26;83.86;101492.63;108436;1277;21982;-76
2021/12/14 08:07:45;;;;;;;91.00;78.10;;;;;;;2.27;83.83;101494.31;108851;1277;22035;-76
2021/12/14 08:10:23;;;;;;;88.40;78.90;;;;;;;2.29;83.86;101493.17;108888;1277;23026;-76
2021/12/14 08:13:18;;;;;;;96.00;79.40;;;;;;;2.29;83.82;101487.98;108711;1277;21985;-75
2021/12/14 08:15:59;;;;;;;88.50;68.60;;;;;;;2.31;84.05;101480.20;108561;1281;23133;-76
2021/12/14 08:18:38;;;;;;;116.20;89.50;;;;;;;2.35;84.03;101479.81;108455;1283;22055;-76
2021/12/14 08:21:21;;;;;;;105.50;93.90;;;;;;;2.36;83.97;101478.33;108555;1282;23053;-76
2021/12/14 08:23:57;;;;;;;94.10;77.40;;;;;;;2.36;83.80;101480.44;108273;1287;24322;-76
2021/12/14 08:26:38;;;;;;;88.70;72.00;;;;;;;2.38;83.97;101484.16;108085;1288;23739;-75
2021/12/14 08:29:14;;;;;;;92.70;72.90;;;;;;;2.41;83.96;101487.49;108180;1288;22966;-74
2021/12/14 08:32:13;;;;;;;89.30;69.00;;;;;;;2.45;84.04;101488.29;108250;1287;23609;-74
2021/12/14 08:34:49;;;;;;;98.00;77.20;;;;;;;2.46;83.86;101493.96;108379;1280;22017;-75
2021/12/14 08:38:03;;;;;;;114.40;90.90;;;;;;;2.51;84.17;101497.46;108680;1281;22181;-75
2021/12/14 08:40:48;;;;;;;140.20;117.00;;;;;;;2.62;84.22;101494.24;108035;1287;23726;-75
2021/12/14 08:43:33;;;;;;;101.60;87.80;;;;;;;2.71;84.14;101493.57;108194;1285;21983;-75
2021/12/14 08:46:14;;;;;;;101.70;89.00;;;;;;;2.75;83.94;101493.98;108313;1285;22180;-76
2021/12/14 08:49:09;;;;;;;97.70;86.80;;;;;;;2.79;83.86;101498.84;108425;1283;22472;-75
2021/12/14 08:51:45;;;;;;;88.60;73.10;;;;;;;2.84;83.82;101497.70;108435;1283;23608;-76
2021/12/14 08:54:30;;;;;;;87.40;71.20;;;;;;;2.87;83.72;101495.60;108297;1285;23611;-75
2021/12/14 08:57:23;;;;;;;78.00;65.70;;;;;;;2.90;83.71;101493.48;107978;1289;22295;-75
2021/12/14 09:00:12;;;;;;;84.10;70.10;;;;;;;2.94;83.60;101489.24;108152;1289;22014;-76
2021/12/14 09:02:45;;;;;;;87.70;71.70;;;;;;;2.97;83.67;101493.62;108131;1287;23802;-75
2021/12/14 09:05:37;;;;;;;82.30;71.40;;;;;;;3.03;83.65;101489.77;107995;1289;21991;-76
2021/12/14 09:08:11;;;;;;;95.90;79.40;;;;;;;2.99;83.15;101486.33;107952;1289;22785;-75
2021/12/14 09:10:47;;;;;;;90.30;72.00;;;;;;;2.99;83.25;101483.91;107912;1289;22049;-75
2021/12/14 09:13:26;;;;;;;96.40;78.00;;;;;;;2.97;83.05;101485.23;107730;1292;23621;-80
2021/12/14 09:16:20;;;;;;;117.30;94.50;;;;;;;2.96;83.01;101485.46;107403;1298;24461;-75
2021/12/14 09:18:58;;;;;;;98.00;79.60;;;;;;;2.99;83.22;101483.90;107706;1293;22015;-76
2021/12/14 09:21:42;;;;;;;96.30;84.80;;;;;;;2.98;82.99;101482.05;107875;1289;22015;-75
2021/12/14 09:24:20;;;;;;;98.80;84.30;;;;;;;3.01;83.21;101482.89;107954;1291;23150;-74
2021/12/14 09:26:56;;;;;;;101.80;88.60;;;;;;;3.06;83.13;101484.34;107919;1292;22442;-75
2021/12/14 09:29:29;;;;;;;97.40;81.90;;;;;;;3.13;83.09;101478.55;107953;1291;23820;-76
2021/12/14 09:32:07;;;;;;;99.30;81.90;;;;;;;3.15;83.00;101472.52;108011;1287;22344;-76
2021/12/14 09:34:42;;;;;;;98.30;84.80;;;;;;;3.14;82.65;101462.16;107973;1288;23800;-75
2021/12/14 09:37:13;;;;;;;102.20;83.40;;;;;;;3.11;82.72;101456.42;108046;1288;22100;-76
2021/12/14 09:39:58;;;;;;;100.80;85.10;;;;;;;3.13;82.84;101452.44;108066;1283;21992;-76
2021/12/14 09:42:33;;;;;;;102.20;86.50;;;;;;;3.12;82.70;101453.38;108411;1285;22466;-76
2021/12/14 09:45:26;;;;;;;105.40;83.30;;;;;;;3.10;82.61;101457.36;108398;1283;21997;-75
2021/12/14 09:47:57;;;;;;;109.40;84.40;;;;;;;3.08;82.55;101454.31;108322;1284;21992;-75
2021/12/14 09:50:42;;;;;;;109.30;86.00;;;;;;;3.06;82.56;101454.98;108690;1278;23352;-75
2021/12/14 09:53:20;;;;;;;118.00;93.50;;;;;;;3.05;82.50;101455.86;108693;1276;205560;-76
2021/12/14 09:55:52;;;;;;;118.20;94.80;;;;;;;3.04;82.46;101454.35;108686;1278;22731;-75
2021/12/14 09:58:30;;;;;;;107.80;90.70;;;;;;;3.05;82.60;101455.70;108825;1278;23706;-75
2021/12/14 10:01:13;;;;;;;116.10;91.30;;;;;;;3.08;82.58;101457.98;108656;1278;22943;-75
2021/12/14 10:03:52;;;;;;;133.40;104.20;;;;;;;3.07;82.57;101453.84;108876;1276;21980;-75
2021/12/14 10:06:30;;;;;;;127.00;99.30;;;;;;;3.07;82.51;101455.58;108692;1278;21982;-75
2021/12/14 10:09:16;;;;;;;125.00;99.00;;;;;;;3.07;82.61;101457.71;108728;1278;23023;-76
2021/12/14 10:14:42;;;;;;;140.20;111.60;;;;;;;3.00;82.49;101458.77;108780;1278;22022;-75
2021/12/14 10:17:17;;;;;;;132.10;106.30;;;;;;;3.02;82.62;101453.63;108544;1279;21982;-76
2021/12/14 10:19:48;;;;;;;126.60;104.20;;;;;;;3.06;82.71;101456.51;108752;1278;22048;-75
2021/12/14 10:22:31;;;;;;;125.60;100.60;;;;;;;3.13;82.83;101459.23;108840;1278;22010;-75
2021/12/14 10:25:13;;;;;;;128.50;104.70;;;;;;;3.17;82.65;101458.63;108782;1278;21960;-75
2021/12/14 10:27:46;;;;;;;132.30;106.90;;;;;;;3.19;82.56;101458.34;108741;1278;21998;-75
2021/12/14 10:30:32;;;;;;;115.90;98.80;;;;;;;3.23;82.69;101454.27;108835;1278;21997;-76
2021/12/14 10:33:05;;;;;;;119.00;96.10;;;;;;;3.24;82.36;101448.98;108810;1278;23052;-75
2021/12/14 10:35:45;;;;;;;109.80;90.40;;;;;;;3.23;82.50;101449.38;108819;1278;21989;-75
2021/12/14 10:38:30;;;;;;;124.30;97.40;;;;;;;3.25;82.50;101454.49;108418;1284;23615;-75
2021/12/14 10:44:10;;;;;;;114.50;89.00;;;;;;;3.21;82.31;101453.66;108395;1285;22960;-75
2021/12/14 10:46:48;;;;;;;109.60;86.00;;;;;;;3.21;82.51;101451.05;108283;1285;23616;-75
2021/12/14 10:49:32;;;;;;;128.20;96.40;;;;;;;3.26;82.60;101450.56;108434;1283;23733;-74
2021/12/14 10:52:14;;;;;;;132.00;97.30;;;;;;;3.32;82.70;101445.73;108070;1289;22014;-75
2021/12/14 10:54:52;;;;;;;133.50;99.40;;;;;;;3.35;82.64;101438.75;108106;1289;23618;-76
2021/12/14 10:57:33;;;;;;;142.40;101.80;;;;;;;3.37;82.73;101433.41;108378;1283;23510;-75
2021/12/14 11:00:28;;;;;;;117.00;88.20;;;;;;;3.41;82.71;101430.19;108405;1283;21979;-76
2021/12/14 11:03:47;;;;;;;129.30;91.20;;;;;;;3.40;82.64;101427.44;108364;1283;21992;-75
2021/12/14 11:06:27;;;;;;;123.20;89.50;;;;;;;3.42;82.60;101428.55;108421;1284;23672;-75
2021/12/14 11:12:37;;;;;;;118.20;87.80;;;;;;;3.45;82.55;101426.99;108843;1278;23653;-75
2021/12/14 11:15:17;;;;;;;113.80;86.70;;;;;;;3.47;82.52;101421.95;108831;1278;22005;-75
2021/12/14 11:18:09;;;;;;;123.70;95.20;;;;;;;3.45;82.33;101415.31;108854;1278;21978;-75
2021/12/14 11:21:03;;;;;;;136.70;99.60;;;;;;;3.41;82.33;101413.84;108835;1278;22012;-75
2021/12/14 11:23:49;;;;;;;136.40;102.70;;;;;;;3.46;82.86;101414.86;108877;1278;22002;-75
2021/12/14 11:26:35;;;;;;;141.50;109.20;;;;;;;3.52;82.86;101416.39;108740;1278;23582;-75
2021/12/14 11:29:26;;;;;;;139.20;98.80;;;;;;;3.57;82.76;101416.51;108848;1277;22016;-76
2021/12/14 11:32:02;;;;;;;135.50;104.30;;;;;;;3.60;82.67;101416.11;108680;1278;22943;-76
2021/12/14 11:34:52;;;;;;;138.40;108.40;;;;;;;3.66;82.90;101412.42;108863;1277;23053;-75
2021/12/14 11:41:10;;;;;;;;;;;;;;;;;;;;;
2021/12/14 11:44:32;;;;;;;143.60;106.30;;;;;;;3.78;82.56;101405.02;107784;1291;22055;-77
2021/12/14 11:50:45;;;;;;;191.40;151.30;;;;;;;3.81;82.77;101403.81;107943;1289;23704;-77
2021/12/14 11:53:18;;;;;;;155.00;115.90;;;;;;;3.82;82.48;101393.09;107986;1289;22373;-75
2021/12/14 11:56:09;;;;;;;166.50;119.10;;;;;;;3.82;82.43;101387.52;108175;1284;21995;-75
2021/12/14 11:58:56;;;;;;;162.50;122.90;;;;;;;3.82;82.42;101389.09;108315;1285;24324;-75
2021/12/14 12:01:36;;;;;;;175.90;125.60;;;;;;;3.84;82.53;101388.81;108427;1284;21989;-75
2021/12/14 12:04:19;;;;;;;179.60;122.30;;;;;;;3.85;82.46;101392.73;108353;1284;23155;-74
2021/12/14 12:09:44;;;;;;;169.60;120.90;;;;;;;3.83;82.43;101395.14;108253;1284;22155;-76
2021/12/14 12:12:30;;;;;;;158.30;114.40;;;;;;;3.85;82.41;101392.35;108344;1285;22459;-76
2021/12/14 12:15:05;;;;;;;138.10;103.40;;;;;;;3.86;82.33;101391.83;108249;1287;22092;-75
2021/12/14 12:17:50;;;;;;;182.40;134.90;;;;;;;3.86;82.32;101390.08;108311;1282;23698;-76
2021/12/14 12:20:45;;;;;;;155.80;117.90;;;;;;;3.88;82.37;101390.47;108529;1282;22979;-76
2021/12/14 12:23:22;;;;;;;163.20;121.20;;;;;;;3.91;82.48;101382.42;108083;1288;22024;-74
2021/12/14 12:25:59;;;;;;;158.40;118.40;;;;;;;3.92;82.40;101381.81;108090;1289;24369;-75
2021/12/14 12:28:37;;;;;;;170.70;131.40;;;;;;;3.93;82.41;101377.90;108200;1288;23052;-75
2021/12/14 12:31:16;;;;;;;166.40;123.80;;;;;;;3.96;82.54;101374.41;108143;1288;21998;-75
2021/12/14 12:33:56;;;;;;;154.40;114.60;;;;;;;3.97;82.34;101376.61;108171;1289;21998;-75
2021/12/14 12:36:38;;;;;;;163.00;109.10;;;;;;;3.97;82.37;101375.19;108276;1285;21999;-75
2021/12/14 12:39:29;;;;;;;151.60;106.60;;;;;;;3.98;82.38;101377.39;108456;1284;22497;-76
2021/12/14 12:42:01;;;;;;;135.00;104.00;;;;;;;4.01;82.40;101378.45;108246;1285;22763;-76
2021/12/14 12:44:39;;;;;;;144.20;108.90;;;;;;;4.05;82.44;101381.86;108339;1285;22024;-76
2021/12/14 12:47:16;;;;;;;148.70;107.80;;;;;;;4.07;82.29;101383.29;108397;1285;23077;-76
2021/12/14 12:49:52;;;;;;;130.80;91.50;;;;;;;4.08;82.25;101385.33;107996;1288;22066;-75
2021/12/14 12:52:34;;;;;;;129.70;94.80;;;;;;;4.08;82.17;101384.61;108132;1290;22031;-76
2021/12/14 12:55:17;;;;;;;133.10;90.10;;;;;;;4.05;82.03;101383.75;108149;1288;22180;-76
2021/12/14 12:57:58;;;;;;;137.10;99.70;;;;;;;4.04;82.06;101384.52;108129;1288;22089;-75